Time;durP1;ratioP1;P1;durP2;ratioP2;P2;SDS_P1;SDS_P2;PMS_P1;PMS_P2;Temp;Humidity;BMP_temperature;BMP_pressure;BME280_temperature;BME280_humidity;BME280_pressure;Samples;Min_cycle;Max_cycle;Signal;HPM_P1;HPM_P2
2022/05/02 00:00:54;;;;;;;3.93;1.83;;;11.40;1.00;;;;;;5113358;28;20482;-53
2022/05/02 00:03:21;;;;;;;3.10;2.13;;;11.30;1.00;;;;;;5112855;28;20459;-56
2022/05/02 00:05:48;;;;;;;4.00;2.47;;;11.30;1.00;;;;;;5118948;28;20448;-54
2022/05/02 00:08:15;;;;;;;2.93;2.57;;;11.20;1.00;;;;;;5118878;28;20445;-55
2022/05/02 00:10:42;;;;;;;6.00;3.00;;;11.20;1.00;;;;;;5107740;28;20724;-54
2022/05/02 00:13:09;;;;;;;7.27;3.17;;;11.10;1.00;;;;;;5097031;28;20453;-54
2022/05/02 00:15:37;;;;;;;5.00;2.03;;;11.10;1.00;;;;;;5097040;28;20812;-52
2022/05/02 00:18:07;;;;;;;2.93;2.63;;;11.10;1.00;;;;;;5096134;28;20485;-51
2022/05/02 00:20:35;;;;;;;3.30;2.57;;;11.10;1.00;;;;;;5095451;28;20457;-51
2022/05/02 00:23:04;;;;;;;6.97;2.97;;;11.10;1.00;;;;;;5097140;28;20484;-54
2022/05/02 00:25:31;;;;;;;4.20;2.23;;;11.10;1.00;;;;;;5097744;28;20449;-52
2022/05/02 00:27:58;;;;;;;3.13;2.70;;;11.10;1.00;;;;;;5097533;28;20463;-55
2022/05/02 00:30:25;;;;;;;3.27;2.40;;;11.00;1.00;;;;;;5096846;28;20754;-56
2022/05/02 00:32:53;;;;;;;5.03;2.70;;;11.00;1.00;;;;;;5097599;28;20449;-51
2022/05/02 00:35:21;;;;;;;4.03;2.90;;;11.00;1.00;;;;;;5097322;28;20445;-51
2022/05/02 00:37:48;;;;;;;3.30;1.63;;;11.00;1.00;;;;;;5095561;28;20535;-55
2022/05/02 00:40:17;;;;;;;2.77;2.00;;;11.00;1.00;;;;;;5096450;28;20924;-54
2022/05/02 00:42:44;;;;;;;3.60;2.40;;;11.00;1.00;;;;;;5094570;28;20460;-51
2022/05/02 00:45:13;;;;;;;3.17;2.60;;;11.10;1.00;;;;;;5096577;28;20449;-49
2022/05/02 00:47:40;;;;;;;5.43;2.43;;;11.10;1.00;;;;;;5101874;28;20455;-54
2022/05/02 00:50:09;;;;;;;3.40;2.60;;;11.10;1.00;;;;;;5116683;28;20441;-52
2022/05/02 00:52:38;;;;;;;5.40;3.90;;;11.10;1.00;;;;;;5116942;28;20467;-53
2022/05/02 00:55:06;;;;;;;3.20;2.53;;;11.10;1.00;;;;;;5114593;28;20451;-55
2022/05/02 00:57:34;;;;;;;4.33;3.10;;;11.10;1.00;;;;;;5097423;28;20445;-55
2022/05/02 01:00:01;;;;;;;2.70;2.10;;;11.00;1.00;;;;;;5097556;28;20483;-53
2022/05/02 01:02:27;;;;;;;5.23;2.47;;;11.00;1.00;;;;;;5097332;28;20447;-50
2022/05/02 01:04:54;;;;;;;3.43;2.53;;;11.00;1.00;;;;;;5105808;28;20445;-55
2022/05/02 01:07:20;;;;;;;4.77;2.27;;;11.00;1.00;;;;;;5097523;28;20456;-55
2022/05/02 01:09:53;;;;;;;3.80;2.53;;;11.00;1.00;;;;;;5096680;28;20516;-51
2022/05/02 01:12:22;;;;;;;2.70;1.83;;;11.00;1.00;;;;;;5095848;28;20253;-51
2022/05/02 01:14:53;;;;;;;5.07;1.80;;;11.00;1.00;;;;;;5101387;28;20441;-55
2022/05/02 01:20:01;;;;;;;5.70;3.07;;;11.00;1.00;;;;;;5114963;28;20506;-55
2022/05/02 01:22:30;;;;;;;3.00;1.53;;;10.90;1.00;;;;;;5112617;28;20485;-53
2022/05/02 01:24:56;;;;;;;3.97;2.70;;;10.90;1.00;;;;;;5109351;28;20472;-51
2022/05/02 01:27:23;;;;;;;4.20;3.20;;;10.90;1.00;;;;;;5116194;28;20444;-55
2022/05/02 01:29:50;;;;;;;3.83;2.13;;;10.80;1.00;;;;;;5116057;28;20455;-51
2022/05/02 01:32:18;;;;;;;2.87;2.20;;;10.90;1.00;;;;;;5105880;27;20438;-50
2022/05/02 01:34:45;;;;;;;3.17;2.03;;;10.90;1.00;;;;;;5093997;28;20444;-51
2022/05/02 01:37:13;;;;;;;3.80;2.20;;;10.90;1.00;;;;;;5095340;28;20930;-53
2022/05/02 01:39:42;;;;;;;4.20;2.13;;;10.90;1.00;;;;;;5095646;28;20485;-54
2022/05/02 01:42:11;;;;;;;3.10;1.70;;;11.00;1.00;;;;;;5096433;28;20897;-47
2022/05/02 01:44:39;;;;;;;2.50;2.30;;;11.00;1.00;;;;;;5095945;28;20464;-54
2022/05/02 01:47:08;;;;;;;4.67;3.10;;;11.10;1.00;;;;;;5096535;28;20895;-53
2022/05/02 01:49:34;;;;;;;4.50;2.50;;;11.10;1.00;;;;;;5096735;28;20449;-51
2022/05/02 01:52:01;;;;;;;4.17;2.30;;;11.20;1.00;;;;;;5097039;28;20445;-53
2022/05/02 01:54:28;;;;;;;2.90;1.73;;;11.20;1.00;;;;;;5094981;28;20450;-53
2022/05/02 01:56:56;;;;;;;3.37;2.53;;;11.10;1.00;;;;;;5095796;28;20452;-53
2022/05/02 01:59:23;;;;;;;4.20;2.47;;;11.00;1.00;;;;;;5093377;28;20772;-54
2022/05/02 02:01:50;;;;;;;2.67;1.83;;;11.00;1.00;;;;;;5094453;28;20453;-50
2022/05/02 02:07:02;;;;;;;4.07;2.20;;;10.90;1.00;;;;;;5093743;28;20495;-49
2022/05/02 02:09:29;;;;;;;4.67;2.83;;;10.90;1.00;;;;;;5092356;28;20457;-48
2022/05/02 02:11:58;;;;;;;5.47;2.50;;;10.90;1.00;;;;;;5092942;28;20888;-54
2022/05/02 02:14:24;;;;;;;4.60;3.17;;;10.80;1.00;;;;;;5093981;28;20453;-52
2022/05/02 02:16:51;;;;;;;3.73;2.77;;;10.80;1.00;;;;;;5095065;28;20544;-51
2022/05/02 02:19:18;;;;;;;3.30;2.30;;;10.80;1.00;;;;;;5093783;28;20485;-49
2022/05/02 02:21:45;;;;;;;5.80;3.60;;;10.70;1.00;;;;;;5094313;28;20448;-54
2022/05/02 02:24:12;;;;;;;5.30;2.60;;;10.80;1.00;;;;;;5093879;28;20460;-53
2022/05/02 02:26:40;;;;;;;3.53;2.40;;;10.80;1.00;;;;;;5094344;28;20444;-53
2022/05/02 02:29:08;;;;;;;5.17;2.77;;;10.80;1.00;;;;;;5094394;28;20885;-53
2022/05/02 02:31:35;;;;;;;4.43;2.23;;;10.80;1.00;;;;;;5095360;28;20449;-48
2022/05/02 02:34:02;;;;;;;3.63;2.63;;;10.80;1.00;;;;;;5095129;28;20461;-51
2022/05/02 02:36:29;;;;;;;5.10;3.10;;;10.80;1.00;;;;;;5094271;28;20437;-54
2022/05/02 02:38:56;;;;;;;3.93;2.43;;;10.80;1.00;;;;;;5094831;28;20456;-56
2022/05/02 02:41:22;;;;;;;7.47;2.93;;;10.80;1.00;;;;;;5095184;28;20536;-55
2022/05/02 02:43:49;;;;;;;3.30;2.77;;;10.80;1.00;;;;;;5095120;28;20445;-56
2022/05/02 02:46:17;;;;;;;2.67;2.43;;;10.90;1.00;;;;;;5095507;28;20759;-51
2022/05/02 02:48:44;;;;;;;4.30;2.50;;;10.90;1.00;;;;;;5094899;28;20456;-54
2022/05/02 02:51:11;;;;;;;5.10;3.00;;;11.00;1.00;;;;;;5095253;28;20536;-55
2022/05/02 02:53:38;;;;;;;6.00;3.03;;;11.00;1.00;;;;;;5095707;28;20449;-54
2022/05/02 02:56:05;;;;;;;3.17;2.10;;;11.10;1.00;;;;;;5115902;28;20441;-52
2022/05/02 02:58:32;;;;;;;4.40;2.60;;;11.10;1.00;;;;;;5116684;28;20499;-50
2022/05/02 03:00:59;;;;;;;6.43;2.40;;;11.00;1.00;;;;;;5116743;28;20772;-52
2022/05/02 03:03:29;;;;;;;4.37;2.30;;;11.00;1.00;;;;;;5109034;28;20453;-55
2022/05/02 03:06:03;;;;;;;5.90;3.77;;;11.00;1.00;;;;;;5098204;28;20441;-53
2022/05/02 03:08:35;;;;;;;4.63;2.70;;;10.90;1.00;;;;;;5100162;28;20488;-51
2022/05/02 03:11:02;;;;;;;3.30;2.10;;;10.90;1.00;;;;;;5099695;28;20456;-52
2022/05/02 03:13:29;;;;;;;3.47;2.60;;;10.90;1.00;;;;;;5104647;28;20448;-55
2022/05/02 03:15:56;;;;;;;6.33;2.90;;;10.90;1.00;;;;;;5120081;28;20493;-55
2022/05/02 03:18:24;;;;;;;3.80;2.33;;;10.90;1.00;;;;;;5119568;28;20961;-54
2022/05/02 03:20:52;;;;;;;3.87;2.57;;;10.90;1.00;;;;;;5119910;28;20486;-55
2022/05/02 03:23:20;;;;;;;4.60;3.30;;;10.90;1.00;;;;;;5099597;28;20468;-54
2022/05/02 03:25:47;;;;;;;6.70;2.70;;;11.00;1.00;;;;;;5099562;28;20445;-56
2022/05/02 03:28:14;;;;;;;3.50;2.00;;;11.00;1.00;;;;;;5099640;28;20449;-56
2022/05/02 03:30:41;;;;;;;3.27;2.73;;;10.90;1.00;;;;;;5099336;28;20477;-53
2022/05/02 03:33:08;;;;;;;4.37;3.57;;;10.80;1.00;;;;;;5099235;28;20460;-52
2022/05/02 03:35:35;;;;;;;3.47;2.70;;;10.80;1.00;;;;;;5099352;28;20900;-55
2022/05/02 03:38:03;;;;;;;4.00;2.80;;;10.70;1.00;;;;;;5096566;28;20484;-54
2022/05/02 03:40:30;;;;;;;3.83;2.33;;;10.70;5.80;;;;;;5095470;28;20492;-50
2022/05/02 03:42:57;;;;;;;3.30;2.70;;;10.70;8.40;;;;;;5096150;28;20823;-47
2022/05/02 03:45:24;;;;;;;4.33;3.57;;;10.80;7.50;;;;;;5096227;28;20532;-53
2022/05/02 03:47:51;;;;;;;5.10;3.53;;;10.80;6.90;;;;;;5096038;28;21078;-53
2022/05/02 03:50:18;;;;;;;3.30;2.40;;;10.90;1.00;;;;;;5094974;28;20440;-50
2022/05/02 03:52:44;;;;;;;7.00;3.67;;;11.10;1.00;;;;;;5097223;28;20492;-48
2022/05/02 03:55:13;;;;;;;3.93;3.57;;;11.10;1.00;;;;;;5098593;28;20460;-53
2022/05/02 03:57:40;;;;;;;3.50;2.63;;;11.10;1.00;;;;;;5098469;28;20467;-52
2022/05/02 04:00:08;;;;;;;5.60;3.47;;;11.20;1.00;;;;;;5098891;28;20473;-53
2022/05/02 04:02:35;;;;;;;4.30;2.77;;;11.20;1.00;;;;;;5098665;28;20590;-52
2022/05/02 04:05:02;;;;;;;5.03;3.77;;;11.20;1.00;;;;;;5098734;28;20468;-54
2022/05/02 04:07:29;;;;;;;5.43;2.90;;;11.20;1.00;;;;;;5098849;28;20441;-48
2022/05/02 04:09:56;;;;;;;4.43;3.33;;;11.20;1.00;;;;;;5114683;28;20451;-49
2022/05/02 04:12:24;;;;;;;5.27;3.13;;;11.20;1.00;;;;;;5117978;27;20449;-48
2022/05/02 04:14:51;;;;;;;3.20;2.90;;;11.20;1.00;;;;;;5118412;28;20506;-48
2022/05/02 04:17:18;;;;;;;4.57;2.77;;;11.20;1.00;;;;;;5105259;28;20756;-53
2022/05/02 04:19:45;;;;;;;4.80;3.57;;;11.20;1.00;;;;;;5097864;28;20482;-50
2022/05/02 04:22:12;;;;;;;3.70;3.40;;;11.20;1.00;;;;;;5098262;28;20877;-52
2022/05/02 04:24:38;;;;;;;4.40;3.23;;;11.30;1.00;;;;;;5098402;28;20559;-50
2022/05/02 04:27:06;;;;;;;9.73;2.93;;;11.30;1.00;;;;;;5098019;28;20445;-56
2022/05/02 04:29:34;;;;;;;2.77;2.30;;;11.20;1.00;;;;;;5098197;28;20460;-56
2022/05/02 04:32:01;;;;;;;5.93;3.37;;;11.20;1.00;;;;;;5097389;28;20444;-57
2022/05/02 04:34:28;;;;;;;3.93;3.53;;;11.20;1.00;;;;;;5097433;28;20533;-55
2022/05/02 04:36:54;;;;;;;4.23;3.60;;;11.30;1.00;;;;;;5097326;28;20477;-57
2022/05/02 04:39:21;;;;;;;3.50;3.10;;;11.40;1.00;;;;;;5097041;28;20454;-56
2022/05/02 04:41:48;;;;;;;4.20;2.67;;;11.40;1.00;;;;;;5097353;28;20450;-57
2022/05/02 04:44:15;;;;;;;9.40;4.43;;;11.40;1.00;;;;;;5097998;28;20448;-56
2022/05/02 04:46:43;;;;;;;4.53;3.00;;;11.40;1.00;;;;;;5118211;28;20871;-58
2022/05/02 04:49:10;;;;;;;4.90;3.30;;;11.30;1.00;;;;;;5118175;28;20453;-56
2022/05/02 04:51:37;;;;;;;3.90;3.00;;;11.20;1.00;;;;;;5118111;28;20449;-56
2022/05/02 04:54:04;;;;;;;6.20;5.50;;;11.20;1.00;;;;;;5100898;28;20445;-55
2022/05/02 04:56:30;;;;;;;5.00;3.10;;;11.00;1.00;;;;;;5097425;28;20456;-57
2022/05/02 04:58:57;;;;;;;4.60;3.27;;;10.90;4.80;;;;;;5097328;28;20438;-56
2022/05/02 05:01:24;;;;;;;4.40;3.50;;;10.90;16.40;;;;;;5097088;28;21220;-55
2022/05/02 05:03:53;;;;;;;4.20;3.80;;;10.90;17.30;;;;;;5109823;28;20513;-56
2022/05/02 05:06:19;;;;;;;5.57;4.90;;;10.90;19.10;;;;;;5117450;28;20452;-56
2022/05/02 05:08:46;;;;;;;6.40;4.67;;;11.00;18.40;;;;;;5117107;27;20872;-56
2022/05/02 05:11:27;;;;;;;5.33;4.23;;;11.00;15.60;;;;;;5108003;28;20445;-55
2022/05/02 05:17:14;;;;;;;5.37;3.47;;;10.90;21.30;;;;;;5095372;28;20737;-53
2022/05/02 05:19:55;;;;;;;5.00;3.90;;;11.10;20.80;;;;;;5094168;28;20512;-59
2022/05/02 05:22:36;;;;;;;5.43;3.30;;;11.10;12.30;;;;;;5094233;28;20442;-65
2022/05/02 05:25:14;;;;;;;4.63;4.10;;;11.10;10.40;;;;;;5094541;28;20460;-60
2022/05/02 05:28:02;;;;;;;5.00;3.70;;;11.20;8.70;;;;;;5092217;28;20452;-59
2022/05/02 05:30:38;;;;;;;6.83;4.40;;;11.40;1.00;;;;;;5093525;28;20446;-59
2022/05/02 05:33:17;;;;;;;13.33;4.30;;;11.30;1.00;;;;;;5092685;28;20449;-59
2022/05/02 05:36:02;;;;;;;6.73;4.60;;;11.10;1.00;;;;;;5091978;28;20561;-60
2022/05/02 05:38:38;;;;;;;6.30;3.47;;;11.00;19.70;;;;;;5093756;28;20529;-59
2022/05/02 05:41:16;;;;;;;7.70;4.83;;;11.10;31.90;;;;;;5095123;28;21003;-59
2022/05/02 05:43:58;;;;;;;4.80;3.50;;;11.10;26.80;;;;;;5093641;28;20452;-59
2022/05/02 05:46:52;;;;;;;3.10;2.80;;;11.20;18.20;;;;;;5091655;28;20461;-59
2022/05/02 05:49:25;;;;;;;6.00;3.80;;;11.30;18.60;;;;;;5098102;28;20451;-58
2022/05/02 05:52:08;;;;;;;4.83;4.00;;;11.50;1.00;;;;;;5112537;28;20441;-59
2022/05/02 05:54:45;;;;;;;5.60;4.37;;;11.70;1.00;;;;;;5112304;28;20541;-58
2022/05/02 05:57:25;;;;;;;7.20;4.67;;;11.80;1.00;;;;;;5101088;28;20441;-58
2022/05/02 06:00:07;;;;;;;5.70;4.13;;;11.80;1.00;;;;;;5113547;28;20887;-62
2022/05/02 06:02:47;;;;;;;5.63;4.27;;;11.90;1.00;;;;;;5114248;28;20768;-59
2022/05/02 06:05:15;;;;;;;7.40;4.57;;;11.80;1.00;;;;;;5109899;28;20454;-59
2022/05/02 06:07:44;;;;;;;6.20;3.57;;;11.80;1.00;;;;;;5108571;28;20755;-58
2022/05/02 06:10:11;;;;;;;8.70;6.00;;;12.00;1.00;;;;;;5114125;28;20452;-57
2022/05/02 06:12:40;;;;;;;8.23;6.33;;;12.10;1.00;;;;;;5114828;28;20445;-60
2022/05/02 06:20:43;;;;;;;6.47;4.57;;;12.00;1.00;;;;;;5105607;28;20568;-58
2022/05/02 06:23:13;;;;;;;11.60;7.60;;;12.20;1.00;;;;;;5111860;28;20784;-58
2022/05/02 06:25:41;;;;;;;9.60;5.93;;;12.10;1.00;;;;;;5109305;28;20483;-58
2022/05/02 06:28:09;;;;;;;9.83;8.13;;;11.90;1.00;;;;;;5114377;28;20820;-61
2022/05/02 06:30:38;;;;;;;6.70;6.00;;;11.80;1.00;;;;;;5114428;28;20448;-58
2022/05/02 06:33:10;;;;;;;9.57;5.13;;;11.80;1.00;;;;;;5103157;28;20436;-59
2022/05/02 06:35:49;;;;;;;12.50;6.93;;;12.00;1.00;;;;;;5106769;28;20453;-58
2022/05/02 06:38:25;;;;;;;8.67;6.93;;;12.20;1.00;;;;;;5110711;28;20441;-58
2022/05/02 06:41:05;;;;;;;8.70;6.30;;;12.30;1.00;;;;;;5112950;28;20472;-58
2022/05/02 06:43:42;;;;;;;7.70;6.30;;;12.40;1.00;;;;;;5103703;28;20436;-59
2022/05/02 06:46:18;;;;;;;6.70;6.00;;;12.30;1.00;;;;;;5112243;28;20444;-56
2022/05/02 06:48:51;;;;;;;10.07;7.10;;;12.40;1.00;;;;;;5098015;28;20471;-56
2022/05/02 06:51:26;;;;;;;7.53;6.03;;;12.40;1.00;;;;;;5110787;28;20460;-54
2022/05/02 06:54:20;;;;;;;9.90;6.70;;;12.60;1.00;;;;;;5111085;28;20453;-56
2022/05/02 06:56:53;;;;;;;12.63;7.53;;;12.70;1.00;;;;;;5113128;28;20899;-58
2022/05/02 06:59:35;;;;;;;11.23;7.27;;;12.60;1.00;;;;;;5115078;28;20477;-52
2022/05/02 07:02:16;;;;;;;9.97;7.90;;;12.80;1.00;;;;;;5109293;28;20479;-54
2022/05/02 07:04:50;;;;;;;10.10;5.83;;;12.90;1.00;;;;;;5114526;28;20456;-52
2022/05/02 07:07:41;;;;;;;9.60;6.57;;;13.10;1.00;;;;;;5114555;28;20445;-51
2022/05/02 07:10:13;;;;;;;10.03;7.50;;;13.20;99.90;;;;;;5108688;28;20552;-54
2022/05/02 07:12:59;;;;;;;29.50;22.40;;;13.30;99.90;;;;;;5114973;28;21074;-54
2022/05/02 07:15:36;;;;;;;16.47;11.80;;;13.40;99.90;;;;;;5116404;28;20440;-53
2022/05/02 07:18:08;;;;;;;10.57;7.67;;;13.40;1.00;;;;;;5110800;28;20472;-54
2022/05/02 07:21:00;;;;;;;12.13;8.13;;;13.50;99.90;;;;;;5113721;28;20481;-53
2022/05/02 07:24:00;;;;;;;8.30;6.50;;;13.60;99.90;;;;;;5112181;28;20455;-54
2022/05/02 07:26:31;;;;;;;8.50;6.60;;;13.70;1.00;;;;;;5098111;28;20556;-57
2022/05/02 07:29:01;;;;;;;9.23;7.00;;;13.80;42.70;;;;;;5103262;28;20448;-55
2022/05/02 07:31:30;;;;;;;8.70;6.70;;;13.90;93.90;;;;;;5110816;28;20484;-57
2022/05/02 07:33:57;;;;;;;9.00;6.43;;;13.90;1.00;;;;;;5115672;28;20795;-57
2022/05/02 07:36:25;;;;;;;7.67;6.90;;;14.00;1.00;;;;;;5113721;28;20448;-54
2022/05/02 07:38:58;;;;;;;10.20;7.10;;;14.00;99.90;;;;;;5115409;28;20441;-57
2022/05/02 07:41:26;;;;;;;10.67;7.20;;;14.10;1.00;;;;;;5114988;28;20506;-54
2022/05/02 07:43:59;;;;;;;10.20;7.50;;;14.10;99.90;;;;;;5105721;28;20450;-57
2022/05/02 07:46:29;;;;;;;9.40;7.50;;;14.20;99.90;;;;;;5103258;28;20460;-57
2022/05/02 07:48:59;;;;;;;7.90;6.70;;;14.20;8.00;;;;;;5115280;28;20449;-57
2022/05/02 07:51:27;;;;;;;7.27;6.37;;;14.20;1.00;;;;;;5114707;28;20444;-55
2022/05/02 07:53:57;;;;;;;10.00;7.63;;;14.20;1.00;;;;;;5115416;28;20443;-56
2022/05/02 07:56:26;;;;;;;9.40;6.50;;;14.30;99.90;;;;;;5113792;28;20484;-55
2022/05/02 07:58:55;;;;;;;10.00;7.33;;;14.40;1.00;;;;;;5116611;28;20523;-57
2022/05/02 08:01:23;;;;;;;8.33;5.50;;;14.40;1.00;;;;;;5107748;28;20485;-55
2022/05/02 08:03:51;;;;;;;7.80;6.30;;;14.50;1.00;;;;;;5110649;28;20441;-56
2022/05/02 08:07:00;;;;;;;9.60;7.80;;;14.50;1.00;;;;;;5109711;28;20463;-57
2022/05/02 08:09:57;;;;;;;7.97;6.17;;;14.70;99.90;;;;;;5106124;28;20444;-57
2022/05/02 08:12:29;;;;;;;9.13;6.67;;;14.70;99.90;;;;;;5107983;28;20881;-57
2022/05/02 08:15:05;;;;;;;8.27;7.30;;;14.80;64.80;;;;;;5096141;28;20496;-57
2022/05/02 08:17:53;;;;;;;10.73;7.20;;;15.00;1.00;;;;;;5107899;28;20449;-55
2022/05/02 08:20:30;;;;;;;10.23;7.40;;;15.00;1.00;;;;;;5101805;28;20449;-57
2022/05/02 08:28:59;;;;;;;10.43;7.27;;;15.20;1.00;;;;;;5113101;28;20959;-58
2022/05/02 08:31:41;;;;;;;8.03;6.60;;;15.20;1.00;;;;;;5101123;28;20447;-58
2022/05/02 08:34:19;;;;;;;8.10;7.13;;;15.30;1.00;;;;;;5110692;28;21034;-58
2022/05/02 08:36:55;;;;;;;8.13;5.70;;;15.40;99.90;;;;;;5099668;28;20743;-58
2022/05/02 08:39:32;;;;;;;8.37;6.77;;;15.50;99.90;;;;;;5109384;28;20437;-57
2022/05/02 08:42:28;;;;;;;11.63;6.40;;;15.50;99.90;;;;;;5099356;28;20591;-58
2022/05/02 08:45:30;;;;;;;8.80;7.90;;;15.70;99.90;;;;;;5111564;28;21009;-58
2022/05/02 08:48:33;;;;;;;6.70;5.30;;;15.70;99.90;;;;;;5105128;28;20478;-59
2022/05/02 08:51:59;;;;;;;22.33;16.83;;;15.80;99.90;;;;;;5103542;28;20500;-58
2022/05/02 08:55:00;;;;;;;5.90;5.30;;;15.80;99.90;;;;;;5099691;28;20528;-58
2022/05/02 08:58:08;;;;;;;8.90;5.83;;;16.00;99.90;;;;;;5102257;28;20447;-58
2022/05/02 09:00:52;;;;;;;4.60;3.73;;;16.20;82.80;;;;;;5099971;28;20518;-58
2022/05/02 09:04:07;;;;;;;7.13;5.07;;;16.30;10.30;;;;;;5098006;28;20498;-58
2022/05/02 09:07:08;;;;;;;5.97;4.37;;;16.50;1.00;;;;;;5098951;28;20452;-58
2022/05/02 09:09:54;;;;;;;7.10;4.50;;;16.50;1.00;;;;;;5100200;28;20521;-58
2022/05/02 09:13:11;;;;;;;5.37;4.83;;;16.40;1.00;;;;;;5105361;28;20449;-56
2022/05/02 09:15:57;;;;;;;4.93;3.93;;;16.40;1.00;;;;;;5103539;28;20950;-58
2022/05/02 09:18:58;;;;;;;5.80;3.93;;;16.50;1.00;;;;;;5100843;28;21066;-57
2022/05/02 09:21:29;;;;;;;8.77;5.43;;;16.60;1.00;;;;;;5112911;28;20500;-58
2022/05/02 09:24:46;;;;;;;11.50;8.10;;;16.60;1.00;;;;;;5104695;28;20449;-59
2022/05/02 09:27:35;;;;;;;5.83;4.80;;;16.50;1.00;;;;;;5097284;28;20450;-54
2022/05/02 09:30:34;;;;;;;6.90;6.20;;;16.60;1.00;;;;;;5103281;28;20445;-55
2022/05/02 09:33:22;;;;;;;5.20;4.37;;;16.60;1.00;;;;;;5105959;28;20441;-54
2022/05/02 09:36:01;;;;;;;4.57;3.97;;;16.60;1.00;;;;;;5100569;28;20457;-51
2022/05/02 09:38:31;;;;;;;7.10;5.57;;;16.50;1.00;;;;;;5110539;28;20457;-51
2022/05/02 09:41:01;;;;;;;5.73;4.70;;;16.50;1.00;;;;;;5110201;28;20457;-53
2022/05/02 09:49:50;;;;;;;5.97;3.90;;;17.00;1.00;;;;;;5101386;28;20456;-49
2022/05/02 09:52:17;;;;;;;4.13;3.63;;;17.40;1.00;;;;;;5094010;28;20884;-60
2022/05/02 09:58:29;;;;;;;4.53;3.90;;;17.50;1.00;;;;;;5105742;28;20459;-58
2022/05/02 10:01:07;;;;;;;6.03;4.17;;;17.60;1.00;;;;;;5106680;28;20447;-59
2022/05/02 10:03:49;;;;;;;3.10;2.10;;;17.50;1.00;;;;;;5105550;28;20457;-58
2022/05/02 10:06:23;;;;;;;2.63;1.90;;;17.50;1.00;;;;;;5107426;28;20567;-57
2022/05/02 10:08:53;;;;;;;3.17;2.43;;;17.40;1.00;;;;;;5109115;28;20464;-57
2022/05/02 10:12:03;;;;;;;5.13;3.10;;;17.50;1.00;;;;;;5110170;28;20453;-58
2022/05/02 10:14:50;;;;;;;3.30;2.10;;;17.50;1.00;;;;;;5104496;28;20440;-58
2022/05/02 10:17:39;;;;;;;5.40;2.27;;;17.40;1.00;;;;;;5111004;28;20868;-58
2022/05/02 10:20:16;;;;;;;3.20;2.33;;;17.40;1.00;;;;;;5111795;28;20895;-57
2022/05/02 10:22:59;;;;;;;4.00;3.70;;;18.00;1.00;;;;;;5105887;28;20480;-58
2022/05/02 10:25:41;;;;;;;2.27;2.07;;;18.30;1.00;;;;;;5094352;28;20448;-58
2022/05/02 10:28:36;;;;;;;2.90;1.90;;;18.10;1.00;;;;;;5107261;28;20489;-58
2022/05/02 10:31:06;;;;;;;2.70;2.03;;;18.00;1.00;;;;;;5100798;28;20472;-58
2022/05/02 10:33:36;;;;;;;2.87;2.67;;;18.40;1.00;;;;;;5108140;28;20499;-58
2022/05/02 10:36:05;;;;;;;2.47;1.90;;;19.10;1.00;;;;;;5109082;28;20780;-58
2022/05/02 10:38:35;;;;;;;2.97;2.73;;;19.80;1.00;;;;;;5107999;28;20745;-58
2022/05/02 10:41:12;;;;;;;1.90;1.70;;;19.80;1.00;;;;;;5104110;28;20457;-58
2022/05/02 10:43:48;;;;;;;3.93;3.43;;;20.30;1.00;;;;;;5107291;28;20458;-59
2022/05/02 10:46:19;;;;;;;3.03;2.73;;;20.70;1.00;;;;;;5107215;28;21012;-59
2022/05/02 10:48:52;;;;;;;2.20;2.00;;;20.90;1.00;;;;;;5104606;28;20456;-59
2022/05/02 10:51:31;;;;;;;4.20;2.90;;;21.30;1.00;;;;;;5104463;28;20947;-58
2022/05/02 10:54:07;;;;;;;1.93;1.50;;;21.30;1.00;;;;;;5109592;28;20810;-58
2022/05/02 10:56:41;;;;;;;2.00;1.80;;;21.10;1.00;;;;;;5101414;28;20467;-58
2022/05/02 10:59:11;;;;;;;2.30;2.00;;;21.40;1.00;;;;;;5110487;28;20847;-57
2022/05/02 11:02:19;;;;;;;2.73;1.97;;;21.60;1.00;;;;;;5108866;28;20484;-58
2022/05/02 11:05:16;;;;;;;2.00;1.63;;;21.50;1.00;;;;;;5062266;28;20455;-58
2022/05/02 11:07:58;;;;;;;1.60;1.27;;;21.20;1.00;;;;;;5100257;28;20907;-57
2022/05/02 11:10:29;;;;;;;2.77;1.47;;;21.20;1.00;;;;;;5111615;28;20529;-58
2022/05/02 11:13:20;;;;;;;2.57;1.83;;;21.60;1.00;;;;;;5111872;28;20760;-57
2022/05/02 11:16:00;;;;;;;1.90;1.53;;;22.00;1.00;;;;;;5098260;28;20553;-58
2022/05/02 11:21:35;;;;;;;3.30;1.90;;;21.40;1.00;;;;;;5103522;28;20514;-58
2022/05/02 11:24:41;;;;;;;1.60;1.30;;;20.70;1.00;;;;;;5107318;28;20736;-58
2022/05/02 11:27:38;;;;;;;2.20;1.20;;;20.80;1.00;;;;;;5073603;28;20986;-58
2022/05/02 11:30:06;;;;;;;1.73;1.27;;;21.00;1.00;;;;;;5107582;28;20457;-59
2022/05/02 11:32:40;;;;;;;1.93;1.20;;;21.40;1.00;;;;;;5110997;28;20457;-57
2022/05/02 11:35:13;;;;;;;1.90;1.40;;;21.30;1.00;;;;;;5109586;28;20438;-58
2022/05/02 11:37:53;;;;;;;2.20;1.80;;;20.80;1.00;;;;;;5108650;28;20464;-58
2022/05/02 11:40:28;;;;;;;1.70;1.33;;;21.20;1.00;;;;;;5110044;27;20433;-59
2022/05/02 11:42:56;;;;;;;1.47;1.10;;;21.60;1.00;;;;;;5115367;28;20490;-58
2022/05/02 11:45:33;;;;;;;2.50;1.70;;;21.40;1.00;;;;;;5109940;27;20446;-58
2022/05/02 11:48:39;;;;;;;2.60;1.60;;;21.30;1.00;;;;;;5105309;28;20527;-58
2022/05/02 11:51:07;;;;;;;1.70;1.60;;;21.00;1.00;;;;;;5114808;28;20453;-58
2022/05/02 11:53:38;;;;;;;2.33;1.20;;;20.60;1.00;;;;;;5108747;28;20442;-59
2022/05/02 11:56:08;;;;;;;3.87;1.20;;;20.40;1.00;;;;;;5105650;28;20463;-58
2022/05/02 11:58:44;;;;;;;2.23;1.40;;;20.10;1.00;;;;;;5098623;28;20449;-58
2022/05/02 12:01:17;;;;;;;1.37;1.17;;;19.90;1.00;;;;;;5099291;28;20443;-59
2022/05/02 12:03:55;;;;;;;2.87;1.20;;;20.00;1.00;;;;;;5105134;28;20688;-58
2022/05/02 12:06:37;;;;;;;1.70;1.40;;;20.50;1.00;;;;;;5108957;28;20449;-58
2022/05/02 12:09:08;;;;;;;1.90;1.27;;;20.80;1.00;;;;;;5097155;28;20446;-59
2022/05/02 12:11:52;;;;;;;2.37;1.40;;;20.70;1.00;;;;;;5105099;28;20927;-58
2022/05/02 12:14:20;;;;;;;2.17;1.20;;;20.60;1.00;;;;;;5095664;28;20445;-58
2022/05/02 12:17:03;;;;;;;1.77;1.33;;;20.70;1.00;;;;;;5105429;28;20536;-59
2022/05/02 12:19:31;;;;;;;2.20;1.20;;;20.60;1.00;;;;;;5109407;28;20468;-57
2022/05/02 12:22:00;;;;;;;4.77;3.87;;;20.60;1.00;;;;;;5103879;28;20943;-57
2022/05/02 12:24:34;;;;;;;1.90;1.37;;;20.50;1.00;;;;;;5108037;28;20425;-59
2022/05/02 12:27:02;;;;;;;2.33;1.50;;;20.30;1.00;;;;;;5113431;28;20445;-58
2022/05/02 12:29:29;;;;;;;1.47;1.30;;;20.20;1.00;;;;;;5101883;28;20464;-58
2022/05/02 12:31:58;;;;;;;1.90;1.20;;;20.40;1.00;;;;;;5106349;28;20520;-58
2022/05/02 12:34:40;;;;;;;3.10;1.20;;;20.90;1.00;;;;;;5110185;28;20441;-56
2022/05/02 12:37:10;;;;;;;1.60;1.27;;;21.40;1.00;;;;;;5108590;28;20923;-58
2022/05/02 12:39:48;;;;;;;1.27;1.00;;;21.40;1.00;;;;;;5114554;28;20440;-57
2022/05/02 12:42:17;;;;;;;1.30;1.00;;;21.70;1.00;;;;;;5107377;28;20477;-58
2022/05/02 12:44:46;;;;;;;1.30;1.10;;;21.80;1.00;;;;;;5094326;28;20697;-57
2022/05/02 12:47:20;;;;;;;1.13;0.90;;;21.70;1.00;;;;;;5104114;28;20770;-57
2022/05/02 12:50:06;;;;;;;1.23;1.00;;;21.60;1.00;;;;;;5111434;28;20871;-58
2022/05/02 12:52:34;;;;;;;1.50;1.27;;;21.80;1.00;;;;;;5104805;28;20556;-57
2022/05/02 12:55:03;;;;;;;1.73;1.03;;;22.00;1.00;;;;;;5105666;28;20449;-57
2022/05/02 13:00:32;;;;;;;1.70;1.50;;;21.90;1.00;;;;;;5112613;28;20562;-58
2022/05/02 13:03:02;;;;;;;2.23;1.10;;;21.30;1.00;;;;;;5105718;28;20468;-58
2022/05/02 13:05:32;;;;;;;1.73;1.40;;;20.90;1.00;;;;;;5109205;28;20471;-57
2022/05/02 13:08:09;;;;;;;4.57;1.30;;;20.90;1.00;;;;;;5108642;28;20437;-58
2022/05/02 13:10:39;;;;;;;1.47;1.03;;;20.90;1.00;;;;;;5110280;28;20461;-58
2022/05/02 13:13:07;;;;;;;1.30;1.00;;;21.00;1.00;;;;;;5109949;28;20449;-59
2022/05/02 13:15:40;;;;;;;3.50;1.50;;;21.10;1.00;;;;;;5110846;28;20461;-56
2022/05/02 13:18:09;;;;;;;2.67;1.10;;;21.00;1.00;;;;;;5111899;28;20780;-58
2022/05/02 13:20:37;;;;;;;2.03;1.00;;;20.80;1.00;;;;;;5113391;27;20452;-58
2022/05/02 13:23:08;;;;;;;1.50;1.10;;;20.70;1.00;;;;;;5113581;28;20485;-58
2022/05/02 13:26:14;;;;;;;1.63;1.10;;;21.00;1.00;;;;;;5112486;28;20460;-57
2022/05/02 13:28:59;;;;;;;1.20;0.80;;;21.40;1.00;;;;;;5110587;28;20932;-57
2022/05/02 13:31:36;;;;;;;1.30;0.90;;;21.40;1.00;;;;;;5110073;28;20455;-56
2022/05/02 13:34:06;;;;;;;1.40;1.00;;;21.30;1.00;;;;;;5111955;28;20437;-57
2022/05/02 13:36:44;;;;;;;1.30;0.90;;;21.20;1.00;;;;;;5110858;28;21009;-55
2022/05/02 13:39:16;;;;;;;0.97;0.70;;;20.90;1.00;;;;;;5112363;28;20447;-57
2022/05/02 13:41:49;;;;;;;1.10;0.80;;;21.30;1.00;;;;;;5109639;28;20586;-57
2022/05/02 13:44:27;;;;;;;1.50;0.90;;;21.90;1.00;;;;;;5111551;28;20473;-56
2022/05/02 13:46:59;;;;;;;1.50;1.00;;;21.90;1.00;;;;;;5112329;28;20448;-57
2022/05/02 13:49:41;;;;;;;1.30;0.90;;;21.90;1.00;;;;;;5109331;28;20445;-57
2022/05/02 13:52:27;;;;;;;0.97;0.83;;;21.60;1.00;;;;;;5109556;28;20447;-54
2022/05/02 13:54:55;;;;;;;1.10;0.90;;;21.20;1.00;;;;;;5109928;28;20665;-57
2022/05/02 13:57:44;;;;;;;1.20;0.93;;;20.80;1.00;;;;;;5112342;28;20441;-57
2022/05/02 14:03:31;;;;;;;2.63;1.83;;;20.40;1.00;;;;;;5109367;28;20765;-56
2022/05/02 14:06:00;;;;;;;1.47;1.10;;;20.60;1.00;;;;;;5110493;28;20576;-57
2022/05/02 14:08:29;;;;;;;1.33;1.00;;;20.80;1.00;;;;;;5110212;28;20451;-57
2022/05/02 14:10:58;;;;;;;1.37;1.03;;;21.10;1.00;;;;;;5110623;28;20456;-57